aviador You're here:

GMFF Decoded Metar

FEZ in MOROCCO
Report Time2018-02-20 13:30:00
UTC Time2018-02-20 13:53:08
Flight Rules vfr VFR
Wind360° at 04 kt
W.Decomp.*RWY 09: 0.1 kt HW 4 kt LCW
Visibility9999 m
Phenomena:N/A
Clouds:Few 030 Hf
Expected CloudBase > 4,400 ft AGL from Temp-Dew spread
CeilingNone
Temp18°C (ISA +7)
Dew Point07°C (49% RH)
AAT15.9°C
QNH1015 hPa
Density Alt2,766 ft
Elevation1,900 ft
Report Wrong Elevation
Raw Report
GMFF 201330Z 36004KT 320V030 9999 FEW030 18/07 Q1015 NOSIG=

Extra information for GMFF:More info

Metar Taf Metar & Taf Last 4 Metars F.Rules Stats Wind Profile Meteogram Temp Stats Airport Information Weather charts Add Link Nearby VenuesMetar ALERT Operation Metar Decoded Social comments